Main page
METAR-TAF:

METAR-TAF

Airports :

Mo i Rana Airport. Røssvoll

Mo I Rana, Norway

latitude: 66-22N, longitude: 014-18E, elevation: 7 m

Current weather observation

The report was made 5 hours and 39 minutes ago, at 22:50 UTC
Wind 2 kt from the East
Temperature -10°C
Humidity 79%
Pressure 1032 hPa
Visibility 10 km or more
Broken clouds at a height of 4000 ft

METAR: ENRA 132250Z 09002KT 9999 BKN040 M10/M13 Q1032

Time: 05:29 (04:29 UTC)

Forecast

The report was made 11 hours and 29 minutes ago, at 17:00 UTC
Forecast valid from 13 at 18 UTC to 13 at 23 UTC
Wind 5 kt from variable directions
Visibility 10 km or more
no clouds below 1500 m and no cumulonimbus

TAF: ENRA 131700Z 1318/1323 VRB05KT CAVOK

Weather observations and forecasts of more than 4000 airports (METAR and TAF reports).

The available stations are represented by yellow and red dots on the map.

Hover mouse over dot to see the name of the station.

Then click to see weather observations and forecasts.

To change the map : click on the green buttons with a black cross to zoom in, on the green button with a dash to zoom out, or on the green arrows for adjacent maps.


METAR-TAF: